This is the latest recevied weather packets stored in our database for station/object S50APT-10. If no packets are shown the sender has not sent any weather packets the latest 10 day(s).
| Time | Temp. | Humidity | Pressure | Rain* | Wind** | Luminosity | Snow |
|---|---|---|---|---|---|---|---|
| 1777911358 | 23.89° C | 27% | 1015.9 hPa | - | - | - | - |
| 1777910457 | 24.44° C | 27% | 1015.8 hPa | - | - | - | - |
| 1777909557 | 26.11° C | 26% | 1015.8 hPa | - | - | - | - |
| 1777908656 | 27.22° C | 25% | 1015.9 hPa | - | - | - | - |
| 1777907755 | 27.22° C | 24% | 1016.1 hPa | - | - | - | - |
| 1777906855 | 27.22° C | 23% | 1016 hPa | - | - | - | - |
| 1777905955 | 27.78° C | 22% | 1016 hPa | - | - | - | - |
| 1777905055 | 28.33° C | 21% | 1016.2 hPa | - | - | - | - |
| 1777904154 | 30.56° C | 21% | 1016.5 hPa | - | - | - | - |
| 1777903254 | 28.89° C | 21% | 1016.7 hPa | - | - | - | - |
| 1777902353 | 30.56° C | 20% | 1016.7 hPa | - | - | - | - |
| 1777901453 | 31.11° C | 22% | 1017 hPa | - | - | - | - |
| 1777900552 | 31.67° C | 21% | 1017.2 hPa | - | - | - | - |
| 1777899651 | 32.78° C | 21% | 1017.3 hPa | - | - | - | - |
| 1777898751 | 28.89° C | 25% | 1017.6 hPa | - | - | - | - |
| 1777897849 | 28.89° C | 27% | 1017.7 hPa | - | - | - | - |
| 1777896949 | 28.33° C | 26% | 1017.8 hPa | - | - | - | - |
| 1777896048 | 30.56° C | 24% | 1018 hPa | - | - | - | - |
| 1777895148 | 31.67° C | 23% | 1018.1 hPa | - | - | - | - |
| 1777894247 | 29.44° C | 24% | 1018.2 hPa | - | - | - | - |
| 1777893345 | 29.44° C | 24% | 1018.4 hPa | - | - | - | - |
| 1777892445 | 31.11° C | 23% | 1018.5 hPa | - | - | - | - |
| 1777891544 | 28.89° C | 24% | 1018.7 hPa | - | - | - | - |
| 1777890644 | 28.89° C | 25% | 1018.9 hPa | - | - | - | - |
| 1777889743 | 31.67° C | 22% | 1019.1 hPa | - | - | - | - |
* Rain since midnight (hover to see other rain measurements)
** Current wind speed in m/s (hover to see current wind gust speed)